Time,TemperatureF,DewpointF,PressureIn,WindDirection,WindDirectionDegrees,WindSpeedMPH,WindSpeedGustMPH,Humidity,HourlyPrecipIn,Conditions,Clouds,dailyrainin,SoftwareType,DateUTC
2013-10-10 00:01:00,44.5,42.9,30.38,ESE,121,0.0,0.0,94,0.00,,,0.00,WeatherCatV1.15B25,2013-10-10 04:01:00,
2013-10-10 00:04:00,44.5,42.9,30.38,ESE,121,0.0,0.0,94,0.00,,,0.00,WeatherCatV1.15B25,2013-10-10 04:04:00,
2013-10-10 00:05:00,44.4,42.8,30.38,ESE,121,0.0,0.0,94,0.00,,,0.00,WeatherCatV1.15B25,2013-10-10 04:05:00,
2013-10-10 00:06:00,44.4,42.8,30.38,ESE,121,0.0,0.0,94,0.00,,,0.00,WeatherCatV1.15B25,2013-10-10 04:06:00,
2013-10-10 00:11:00,44.4,42.8,30.38,ESE,121,0.0,0.0,94,0.00,,,0.00,WeatherCatV1.15B25,2013-10-10 04:11:00,
2013-10-10 00:16:00,44.3,42.7,30.38,ESE,121,0.0,0.0,94,0.00,,,0.00,WeatherCatV1.15B25,2013-10-10 04:16:00,
2013-10-10 00:21:00,44.3,43.0,30.38,ESE,121,0.0,0.0,95,0.00,,,0.00,WeatherCatV1.15B25,2013-10-10 04:21:00,
2013-10-10 00:26:00,44.2,42.9,30.38,ESE,121,0.0,0.0,95,0.00,,,0.00,WeatherCatV1.15B25,2013-10-10 04:26:00,
2013-10-10 00:31:00,44.1,42.5,30.38,ESE,121,0.0,0.0,94,0.00,,,0.00,WeatherCatV1.15B25,2013-10-10 04:31:00,
2013-10-10 00:36:00,44.0,42.7,30.38,ESE,121,0.0,0.0,95,0.00,,,0.00,WeatherCatV1.15B25,2013-10-10 04:36:00,
2013-10-10 00:41:00,44.0,42.7,30.38,ESE,121,0.0,0.0,95,0.00,,,0.00,WeatherCatV1.15B25,2013-10-10 04:41:00,
2013-10-10 00:46:00,44.1,42.8,30.38,ESE,121,0.0,0.0,95,0.00,,,0.00,WeatherCatV1.15B25,2013-10-10 04:46:00,
2013-10-10 00:51:00,44.1,42.8,30.38,ESE,121,0.0,0.0,95,0.00,,,0.00,WeatherCatV1.15B25,2013-10-10 04:51:00,
2013-10-10 00:56:00,44.1,42.8,30.38,ESE,121,0.0,0.0,95,0.00,,,0.00,WeatherCatV1.15B25,2013-10-10 04:56:00,
2013-10-10 01:01:00,44.1,42.8,30.38,ESE,121,0.0,0.0,95,0.00,,,0.00,WeatherCatV1.15B25,2013-10-10 05:01:00,
2013-10-10 01:06:00,44.1,42.8,30.38,ESE,121,0.0,0.0,95,0.00,,,0.00,WeatherCatV1.15B25,2013-10-10 05:06:00,
2013-10-10 01:11:00,44.2,42.9,30.38,ESE,121,0.0,0.0,95,0.00,,,0.00,WeatherCatV1.15B25,2013-10-10 05:11:00,
2013-10-10 01:16:00,44.1,42.8,30.38,ESE,121,0.0,0.0,95,0.00,,,0.00,WeatherCatV1.15B25,2013-10-10 05:16:00,
2013-10-10 01:21:00,44.0,42.7,30.37,ESE,121,0.0,0.0,95,0.00,,,0.00,WeatherCatV1.15B25,2013-10-10 05:21:00,
2013-10-10 01:26:00,43.9,42.6,30.37,ESE,121,0.0,0.0,95,0.00,,,0.00,WeatherCatV1.15B25,2013-10-10 05:26:00,
2013-10-10 01:31:00,43.9,42.6,30.37,ESE,121,0.0,0.0,95,0.00,,,0.00,WeatherCatV1.15B25,2013-10-10 05:31:00,
2013-10-10 01:36:00,43.9,42.6,30.37,ESE,121,0.0,0.0,95,0.00,,,0.00,WeatherCatV1.15B25,2013-10-10 05:36:00,
2013-10-10 01:41:00,43.9,42.6,30.37,ESE,121,0.0,0.0,95,0.00,,,0.00,WeatherCatV1.15B25,2013-10-10 05:41:00,
2013-10-10 01:46:00,44.1,43.0,30.37,ESE,121,0.0,0.0,96,0.00,,,0.00,WeatherCatV1.15B25,2013-10-10 05:46:00,
2013-10-10 01:51:00,44.1,43.0,30.37,ESE,121,0.0,0.0,96,0.00,,,0.00,WeatherCatV1.15B25,2013-10-10 05:51:00,
2013-10-10 01:56:00,44.1,43.0,30.37,ESE,121,0.0,0.0,96,0.00,,,0.00,WeatherCatV1.15B25,2013-10-10 05:56:00,
2013-10-10 02:01:00,44.1,43.0,30.37,ESE,121,0.0,0.0,96,0.00,,,0.00,WeatherCatV1.15B25,2013-10-10 06:01:00,
2013-10-10 02:06:00,44.2,43.1,30.37,ESE,121,0.0,0.0,96,0.00,,,0.00,WeatherCatV1.15B25,2013-10-10 06:06:00,
2013-10-10 02:11:00,44.1,43.0,30.37,ESE,121,0.0,0.0,96,0.00,,,0.00,WeatherCatV1.15B25,2013-10-10 06:11:00,
2013-10-10 02:16:00,44.1,43.0,30.37,ESE,121,0.0,0.0,96,0.00,,,0.00,WeatherCatV1.15B25,2013-10-10 06:16:00,
2013-10-10 02:21:00,44.1,43.0,30.37,ESE,121,0.0,0.0,96,0.00,,,0.00,WeatherCatV1.15B25,2013-10-10 06:21:00,
2013-10-10 02:26:00,44.1,43.0,30.37,ESE,121,0.0,0.0,96,0.00,,,0.00,WeatherCatV1.15B25,2013-10-10 06:26:00,
2013-10-10 02:31:00,44.1,43.0,30.37,ESE,121,0.0,0.0,96,0.00,,,0.00,WeatherCatV1.15B25,2013-10-10 06:31:00,
2013-10-10 02:36:00,44.0,42.9,30.36,ESE,121,0.0,0.0,96,0.00,,,0.00,WeatherCatV1.15B25,2013-10-10 06:36:00,
2013-10-10 02:41:00,44.0,42.9,30.36,ESE,121,0.0,0.0,96,0.00,,,0.00,WeatherCatV1.15B25,2013-10-10 06:41:00,
2013-10-10 02:46:00,44.0,42.9,30.36,ESE,121,0.0,0.0,96,0.00,,,0.00,WeatherCatV1.15B25,2013-10-10 06:46:00,
2013-10-10 02:51:00,44.0,42.9,30.36,ESE,121,0.0,0.0,96,0.00,,,0.00,WeatherCatV1.15B25,2013-10-10 06:51:00,
2013-10-10 02:56:00,44.0,42.9,30.36,ESE,121,0.0,1.0,96,0.00,,,0.00,WeatherCatV1.15B25,2013-10-10 06:56:00,
2013-10-10 03:01:00,44.1,43.0,30.36,ESE,121,0.0,0.0,96,0.00,,,0.00,WeatherCatV1.15B25,2013-10-10 07:01:00,
2013-10-10 03:06:00,44.1,43.0,30.36,ESE,121,0.0,0.0,96,0.00,,,0.00,WeatherCatV1.15B25,2013-10-10 07:06:00,
2013-10-10 03:11:00,44.0,42.9,30.36,ESE,121,0.0,0.0,96,0.00,,,0.00,WeatherCatV1.15B25,2013-10-10 07:11:00,
2013-10-10 03:16:00,43.9,42.8,30.36,ESE,121,0.0,0.0,96,0.00,,,0.00,WeatherCatV1.15B25,2013-10-10 07:16:00,
2013-10-10 03:21:00,43.7,42.4,30.36,ESE,121,0.0,0.0,95,0.00,,,0.00,WeatherCatV1.15B25,2013-10-10 07:21:00,
2013-10-10 03:26:00,43.5,42.2,30.36,ESE,121,0.0,0.0,95,0.00,,,0.00,WeatherCatV1.15B25,2013-10-10 07:26:00,
2013-10-10 03:31:00,43.4,42.1,30.36,ESE,120,0.0,0.0,95,0.00,,,0.00,WeatherCatV1.15B25,2013-10-10 07:31:00,
2013-10-10 03:36:00,43.2,41.9,30.36,ESE,121,0.0,0.0,95,0.00,,,0.00,WeatherCatV1.15B25,2013-10-10 07:36:00,
2013-10-10 03:41:00,43.2,42.1,30.36,ESE,121,0.0,0.0,96,0.00,,,0.00,WeatherCatV1.15B25,2013-10-10 07:41:00,
2013-10-10 03:46:00,43.1,42.0,30.36,ESE,121,0.0,0.0,96,0.00,,,0.00,WeatherCatV1.15B25,2013-10-10 07:46:00,
2013-10-10 03:51:00,42.9,41.8,30.36,ESE,121,0.0,0.0,96,0.00,,,0.00,WeatherCatV1.15B25,2013-10-10 07:51:00,
2013-10-10 03:56:00,42.8,41.7,30.36,ESE,121,0.0,0.0,96,0.00,,,0.00,WeatherCatV1.15B25,2013-10-10 07:56:00,
2013-10-10 04:01:00,42.7,41.6,30.36,ESE,121,0.0,0.0,96,0.00,,,0.00,WeatherCatV1.15B25,2013-10-10 08:01:00,
2013-10-10 04:06:00,42.6,41.5,30.36,ESE,121,0.0,0.0,96,0.00,,,0.00,WeatherCatV1.15B25,2013-10-10 08:06:00,
2013-10-10 04:11:00,42.7,41.6,30.35,ESE,121,0.0,0.0,96,0.00,,,0.00,WeatherCatV1.15B25,2013-10-10 08:11:00,
2013-10-10 04:16:00,42.7,41.6,30.35,ESE,121,0.0,0.0,96,0.00,,,0.00,WeatherCatV1.15B25,2013-10-10 08:16:00,
2013-10-10 04:21:00,42.7,41.6,30.35,ESE,121,0.0,0.0,96,0.00,,,0.00,WeatherCatV1.15B25,2013-10-10 08:21:00,
2013-10-10 04:26:00,42.7,41.6,30.35,ESE,121,0.0,0.0,96,0.00,,,0.00,WeatherCatV1.15B25,2013-10-10 08:26:00,
2013-10-10 04:31:00,42.9,41.8,30.35,ESE,121,0.0,0.0,96,0.00,,,0.00,WeatherCatV1.15B25,2013-10-10 08:31:00,
2013-10-10 04:36:00,43.3,42.2,30.34,North,355,0.0,1.0,96,0.00,,,0.00,WeatherCatV1.15B25,2013-10-10 08:36:00,
2013-10-10 04:41:00,43.4,42.3,30.34,ENE,64,0.0,1.0,96,0.00,,,0.00,WeatherCatV1.15B25,2013-10-10 08:41:00,
2013-10-10 04:46:00,43.5,42.4,30.34,ENE,68,0.0,1.0,96,0.00,,,0.00,WeatherCatV1.15B25,2013-10-10 08:46:00,
2013-10-10 04:51:00,43.5,42.4,30.34,ENE,68,0.0,0.0,96,0.00,,,0.00,WeatherCatV1.15B25,2013-10-10 08:51:00,
2013-10-10 04:56:00,43.5,42.4,30.34,ENE,68,0.0,0.0,96,0.00,,,0.00,WeatherCatV1.15B25,2013-10-10 08:56:00,
2013-10-10 05:01:00,43.6,42.5,30.34,NE,38,0.0,0.0,96,0.00,,,0.00,WeatherCatV1.15B25,2013-10-10 09:01:00,
2013-10-10 05:06:00,43.6,42.5,30.34,WNW,303,0.0,0.0,96,0.00,,,0.00,WeatherCatV1.15B25,2013-10-10 09:06:00,
2013-10-10 05:11:00,43.6,42.5,30.34,WNW,303,0.0,0.0,96,0.00,,,0.00,WeatherCatV1.15B25,2013-10-10 09:11:00,
2013-10-10 05:16:00,43.6,42.5,30.33,WNW,303,0.0,1.0,96,0.00,,,0.00,WeatherCatV1.15B25,2013-10-10 09:16:00,
2013-10-10 05:21:00,43.5,42.4,30.33,WNW,303,0.0,0.0,96,0.00,,,0.00,WeatherCatV1.15B25,2013-10-10 09:21:00,
2013-10-10 05:26:00,43.5,42.4,30.33,WNW,303,0.0,0.0,96,0.00,,,0.00,WeatherCatV1.15B25,2013-10-10 09:26:00,
2013-10-10 05:31:00,43.4,42.3,30.33,WNW,303,0.0,0.0,96,0.00,,,0.00,WeatherCatV1.15B25,2013-10-10 09:31:00,
2013-10-10 05:36:00,43.4,42.3,30.33,WNW,303,0.0,0.0,96,0.00,,,0.00,WeatherCatV1.15B25,2013-10-10 09:36:00,
2013-10-10 05:41:00,43.3,42.2,30.33,WNW,303,0.0,0.0,96,0.00,,,0.00,WeatherCatV1.15B25,2013-10-10 09:41:00,
2013-10-10 05:46:00,43.2,42.1,30.33,WNW,303,0.0,0.0,96,0.00,,,0.00,WeatherCatV1.15B25,2013-10-10 09:46:00,
2013-10-10 05:51:00,43.1,42.0,30.33,WNW,303,0.0,0.0,96,0.00,,,0.00,WeatherCatV1.15B25,2013-10-10 09:51:00,
2013-10-10 05:56:00,43.1,42.0,30.34,WNW,303,0.0,0.0,96,0.00,,,0.00,WeatherCatV1.15B25,2013-10-10 09:56:00,
2013-10-10 06:01:00,43.0,41.9,30.34,WNW,303,0.0,0.0,96,0.00,,,0.00,WeatherCatV1.15B25,2013-10-10 10:01:00,
2013-10-10 06:06:00,42.9,41.8,30.34,WNW,303,0.0,0.0,96,0.00,,,0.00,WeatherCatV1.15B25,2013-10-10 10:06:00,
2013-10-10 06:11:00,42.8,41.7,30.34,WNW,303,0.0,0.0,96,0.00,,,0.00,WeatherCatV1.15B25,2013-10-10 10:11:00,
2013-10-10 06:16:00,42.8,41.7,30.34,WNW,303,0.0,0.0,96,0.00,,,0.00,WeatherCatV1.15B25,2013-10-10 10:16:00,
2013-10-10 06:21:00,42.8,41.7,30.34,WNW,303,0.0,0.0,96,0.00,,,0.00,WeatherCatV1.15B25,2013-10-10 10:21:00,
2013-10-10 06:26:00,42.7,41.6,30.34,WNW,303,0.0,0.0,96,0.00,,,0.00,WeatherCatV1.15B25,2013-10-10 10:26:00,
2013-10-10 06:31:00,42.7,41.6,30.34,WNW,303,0.0,0.0,96,0.00,,,0.00,WeatherCatV1.15B25,2013-10-10 10:31:00,
2013-10-10 06:36:00,42.7,41.6,30.34,WNW,303,0.0,0.0,96,0.00,,,0.00,WeatherCatV1.15B25,2013-10-10 10:36:00,
2013-10-10 06:41:00,42.7,41.6,30.34,WNW,303,0.0,0.0,96,0.00,,,0.00,WeatherCatV1.15B25,2013-10-10 10:41:00,
2013-10-10 06:46:00,42.8,41.7,30.33,WNW,303,0.0,0.0,96,0.00,,,0.00,WeatherCatV1.15B25,2013-10-10 10:46:00,
2013-10-10 06:51:00,42.9,41.8,30.33,WNW,303,0.0,0.0,96,0.00,,,0.00,WeatherCatV1.15B25,2013-10-10 10:51:00,
2013-10-10 06:56:00,42.9,41.8,30.34,WNW,303,0.0,0.0,96,0.00,,,0.00,WeatherCatV1.15B25,2013-10-10 10:56:00,
2013-10-10 07:01:00,42.9,41.8,30.34,WNW,303,0.0,0.0,96,0.00,,,0.00,WeatherCatV1.15B25,2013-10-10 11:01:00,
2013-10-10 07:06:00,42.9,41.8,30.34,WNW,303,0.0,0.0,96,0.00,,,0.00,WeatherCatV1.15B25,2013-10-10 11:06:00,
2013-10-10 07:11:00,42.8,41.7,30.34,WNW,303,0.0,0.0,96,0.00,,,0.00,WeatherCatV1.15B25,2013-10-10 11:11:00,
2013-10-10 07:16:00,42.8,41.7,30.34,WNW,303,0.0,0.0,96,0.00,,,0.00,WeatherCatV1.15B25,2013-10-10 11:16:00,
2013-10-10 07:21:00,42.9,41.8,30.34,WNW,303,0.0,0.0,96,0.00,,,0.00,WeatherCatV1.15B25,2013-10-10 11:21:00,
2013-10-10 07:26:00,42.9,41.8,30.34,WNW,303,0.0,0.0,96,0.00,,,0.00,WeatherCatV1.15B25,2013-10-10 11:26:00,
2013-10-10 07:31:00,42.9,41.8,30.35,WNW,303,0.0,0.0,96,0.00,,,0.00,WeatherCatV1.15B25,2013-10-10 11:31:00,
2013-10-10 07:36:00,42.9,41.8,30.35,WNW,303,0.0,0.0,96,0.00,,,0.00,WeatherCatV1.15B25,2013-10-10 11:36:00,
2013-10-10 07:41:00,43.0,41.9,30.35,WNW,303,0.0,0.0,96,0.00,,,0.00,WeatherCatV1.15B25,2013-10-10 11:41:00,
2013-10-10 07:46:00,43.1,42.0,30.35,WNW,303,0.0,0.0,96,0.00,,,0.00,WeatherCatV1.15B25,2013-10-10 11:46:00,
2013-10-10 07:51:00,43.1,42.0,30.35,WNW,303,0.0,0.0,96,0.00,,,0.00,WeatherCatV1.15B25,2013-10-10 11:51:00,
2013-10-10 07:56:00,43.2,42.1,30.35,WNW,303,0.0,0.0,96,0.00,,,0.00,WeatherCatV1.15B25,2013-10-10 11:56:00,
2013-10-10 08:01:00,43.3,42.2,30.35,WNW,303,0.0,0.0,96,0.00,,,0.00,WeatherCatV1.15B25,2013-10-10 12:01:00,
2013-10-10 08:06:00,43.5,42.4,30.34,WNW,303,0.0,0.0,96,0.00,,,0.00,WeatherCatV1.15B25,2013-10-10 12:06:00,
2013-10-10 08:11:00,43.6,42.5,30.35,West,281,0.0,1.0,96,0.00,,,0.00,WeatherCatV1.15B25,2013-10-10 12:11:00,
2013-10-10 08:16:00,43.7,42.6,30.34,West,281,0.0,0.0,96,0.00,,,0.00,WeatherCatV1.15B25,2013-10-10 12:16:00,
2013-10-10 08:21:00,43.8,42.7,30.34,West,281,0.0,1.0,96,0.00,,,0.00,WeatherCatV1.15B25,2013-10-10 12:21:00,
2013-10-10 08:26:00,44.0,42.9,30.34,West,281,0.0,0.0,96,0.00,,,0.00,WeatherCatV1.15B25,2013-10-10 12:26:00,
2013-10-10 08:31:00,44.4,43.3,30.34,WNW,287,0.0,0.0,96,0.00,,,0.00,WeatherCatV1.15B25,2013-10-10 12:31:00,
2013-10-10 08:36:00,44.8,43.7,30.35,WNW,297,0.0,1.0,96,0.00,,,0.00,WeatherCatV1.15B25,2013-10-10 12:36:00,
2013-10-10 08:41:00,45.1,44.0,30.34,West,272,1.0,1.0,96,0.00,,,0.00,WeatherCatV1.15B25,2013-10-10 12:41:00,
2013-10-10 08:46:00,45.4,44.1,30.35,WNW,283,0.0,0.0,95,0.00,,,0.00,WeatherCatV1.15B25,2013-10-10 12:46:00,
2013-10-10 08:51:00,45.6,44.0,30.34,NW,308,0.0,0.0,94,0.00,,,0.00,WeatherCatV1.15B25,2013-10-10 12:51:00,
2013-10-10 08:56:00,46.0,44.4,30.34,WNW,289,0.0,0.0,94,0.00,,,0.00,WeatherCatV1.15B25,2013-10-10 12:56:00,
2013-10-10 09:01:00,46.5,44.6,30.34,NW,312,0.0,0.0,93,0.00,,,0.00,WeatherCatV1.15B25,2013-10-10 13:01:00,
2013-10-10 09:06:00,47.0,44.8,30.34,North,349,0.0,1.0,92,0.00,,,0.00,WeatherCatV1.15B25,2013-10-10 13:06:00,
2013-10-10 09:11:00,47.7,45.2,30.34,NW,310,0.0,1.0,91,0.00,,,0.00,WeatherCatV1.15B25,2013-10-10 13:11:00,
2013-10-10 09:16:00,48.2,45.4,30.34,NE,37,1.0,1.0,90,0.00,,,0.00,WeatherCatV1.15B25,2013-10-10 13:16:00,
2013-10-10 09:21:00,48.2,45.1,30.34,West,278,0.0,2.0,89,0.00,,,0.00,WeatherCatV1.15B25,2013-10-10 13:21:00,
2013-10-10 09:26:00,48.3,45.2,30.34,NW,304,0.0,3.0,89,0.00,,,0.00,WeatherCatV1.15B25,2013-10-10 13:26:00,
2013-10-10 09:31:00,48.4,45.3,30.34,WNW,290,0.0,2.0,89,0.00,,,0.00,WeatherCatV1.15B25,2013-10-10 13:31:00,
2013-10-10 09:36:00,48.6,45.5,30.34,NW,323,0.0,1.0,89,0.00,,,0.00,WeatherCatV1.15B25,2013-10-10 13:36:00,
2013-10-10 09:41:00,48.9,45.8,30.35,NW,321,0.0,1.0,89,0.00,,,0.00,WeatherCatV1.15B25,2013-10-10 13:41:00,
2013-10-10 09:46:00,49.1,46.0,30.35,NW,321,0.0,0.0,89,0.00,,,0.00,WeatherCatV1.15B25,2013-10-10 13:46:00,
2013-10-10 09:51:00,49.5,46.1,30.34,NW,321,0.0,0.0,88,0.00,,,0.00,WeatherCatV1.15B25,2013-10-10 13:51:00,
2013-10-10 09:56:00,49.7,46.3,30.34,NW,321,0.0,0.0,88,0.00,,,0.00,WeatherCatV1.15B25,2013-10-10 13:56:00,
2013-10-10 10:01:00,50.0,46.6,30.34,WNW,288,0.0,0.0,88,0.00,,,0.00,WeatherCatV1.15B25,2013-10-10 14:01:00,
2013-10-10 10:06:00,50.5,47.1,30.34,WNW,295,0.0,0.0,88,0.00,,,0.00,WeatherCatV1.15B25,2013-10-10 14:06:00,
2013-10-10 10:11:00,51.2,47.5,30.34,NNW,328,0.0,1.0,87,0.00,,,0.00,WeatherCatV1.15B25,2013-10-10 14:11:00,
2013-10-10 10:16:00,52.0,47.6,30.34,WNW,295,1.0,1.0,85,0.00,,,0.00,WeatherCatV1.15B25,2013-10-10 14:16:00,
2013-10-10 10:21:00,52.6,47.9,30.34,WSW,255,0.0,1.0,84,0.00,,,0.00,WeatherCatV1.15B25,2013-10-10 14:21:00,
2013-10-10 10:26:00,53.4,48.7,30.34,North,359,1.0,1.0,84,0.00,,,0.00,WeatherCatV1.15B25,2013-10-10 14:26:00,
2013-10-10 10:31:00,54.2,49.1,30.33,North,357,0.0,0.0,83,0.00,,,0.00,WeatherCatV1.15B25,2013-10-10 14:31:00,
2013-10-10 10:36:00,54.9,49.5,30.34,WNW,287,0.0,1.0,82,0.00,,,0.00,WeatherCatV1.15B25,2013-10-10 14:36:00,
2013-10-10 10:41:00,55.9,50.5,30.33,ESE,112,0.0,0.0,82,0.00,,,0.00,WeatherCatV1.15B25,2013-10-10 14:41:00,
2013-10-10 10:46:00,56.7,50.3,30.33,NNW,337,1.0,2.0,79,0.00,,,0.00,WeatherCatV1.15B25,2013-10-10 14:46:00,
2013-10-10 10:51:00,56.9,50.5,30.33,WNW,283,0.0,2.0,79,0.00,,,0.00,WeatherCatV1.15B25,2013-10-10 14:51:00,
2013-10-10 10:56:00,57.2,50.7,30.32,SE,131,2.0,2.0,79,0.00,,,0.00,WeatherCatV1.15B25,2013-10-10 14:56:00,
2013-10-10 11:01:00,57.2,51.1,30.32,East,91,2.0,2.0,80,0.00,,,0.00,WeatherCatV1.15B25,2013-10-10 15:01:00,
2013-10-10 11:06:00,57.4,50.9,30.32,WNW,295,2.0,2.0,79,0.00,,,0.00,WeatherCatV1.15B25,2013-10-10 15:06:00,
2013-10-10 11:11:00,57.3,50.8,30.32,SW,217,1.0,1.0,79,0.00,,,0.00,WeatherCatV1.15B25,2013-10-10 15:11:00,
2013-10-10 11:16:00,57.4,50.9,30.31,West,259,0.0,0.0,79,0.00,,,0.00,WeatherCatV1.15B25,2013-10-10 15:16:00,
2013-10-10 11:21:00,57.8,51.7,30.31,West,259,0.0,0.0,80,0.00,,,0.00,WeatherCatV1.15B25,2013-10-10 15:21:00,
2013-10-10 11:26:00,58.0,51.2,30.31,SSW,199,0.0,1.0,78,0.00,,,0.00,WeatherCatV1.15B25,2013-10-10 15:26:00,
2013-10-10 11:31:00,58.2,51.0,30.31,West,268,0.0,2.0,77,0.00,,,0.00,WeatherCatV1.15B25,2013-10-10 15:31:00,
2013-10-10 11:36:00,58.1,50.2,30.31,WNW,287,0.0,2.0,75,0.00,,,0.00,WeatherCatV1.15B25,2013-10-10 15:36:00,
2013-10-10 11:41:00,58.1,50.6,30.31,WNW,290,0.0,0.0,76,0.00,,,0.00,WeatherCatV1.15B25,2013-10-10 15:41:00,
2013-10-10 11:46:00,58.1,50.6,30.31,East,92,0.0,1.0,76,0.00,,,0.00,WeatherCatV1.15B25,2013-10-10 15:46:00,
2013-10-10 11:51:00,58.1,50.2,30.31,ESE,109,1.0,1.0,75,0.00,,,0.00,WeatherCatV1.15B25,2013-10-10 15:51:00,
2013-10-10 11:56:00,58.3,51.1,30.31,ESE,117,0.0,1.0,77,0.00,,,0.00,WeatherCatV1.15B25,2013-10-10 15:56:00,
2013-10-10 12:01:00,58.6,50.7,30.31,ESE,119,0.0,2.0,75,0.00,,,0.00,WeatherCatV1.15B25,2013-10-10 16:01:00,
2013-10-10 12:06:00,58.5,50.6,30.31,NW,323,0.0,0.0,75,0.00,,,0.00,WeatherCatV1.15B25,2013-10-10 16:06:00,
2013-10-10 12:11:00,58.6,50.3,30.31,NNW,338,0.0,0.0,74,0.00,,,0.00,WeatherCatV1.15B25,2013-10-10 16:11:00,
2013-10-10 12:16:00,59.0,50.7,30.30,NNW,345,1.0,2.0,74,0.00,,,0.00,WeatherCatV1.15B25,2013-10-10 16:16:00,
2013-10-10 12:21:00,58.9,49.5,30.30,WNW,282,0.0,1.0,71,0.00,,,0.00,WeatherCatV1.15B25,2013-10-10 16:21:00,
2013-10-10 12:26:00,58.9,49.9,30.30,WNW,302,0.0,1.0,72,0.00,,,0.00,WeatherCatV1.15B25,2013-10-10 16:26:00,
2013-10-10 12:31:00,59.4,50.0,30.30,West,276,0.0,1.0,71,0.00,,,0.00,WeatherCatV1.15B25,2013-10-10 16:31:00,
2013-10-10 12:36:00,59.5,50.1,30.30,East,90,0.0,2.0,71,0.00,,,0.00,WeatherCatV1.15B25,2013-10-10 16:36:00,
2013-10-10 12:41:00,59.6,50.6,30.30,NNW,337,0.0,1.0,72,0.00,,,0.00,WeatherCatV1.15B25,2013-10-10 16:41:00,
2013-10-10 12:46:00,59.8,50.0,30.30,WNW,292,0.0,2.0,70,0.00,,,0.00,WeatherCatV1.15B25,2013-10-10 16:46:00,
2013-10-10 12:51:00,59.9,50.5,30.29,NE,46,0.0,2.0,71,0.00,,,0.00,WeatherCatV1.15B25,2013-10-10 16:51:00,
2013-10-10 12:56:00,60.0,50.6,30.29,ESE,114,0.0,0.0,71,0.00,,,0.00,WeatherCatV1.15B25,2013-10-10 16:56:00,
2013-10-10 13:01:00,60.1,50.3,30.28,East,94,0.0,1.0,70,0.00,,,0.00,WeatherCatV1.15B25,2013-10-10 17:01:00,
2013-10-10 13:06:00,60.0,50.2,30.28,East,81,0.0,3.0,70,0.00,,,0.00,WeatherCatV1.15B25,2013-10-10 17:06:00,
2013-10-10 13:11:00,59.9,50.5,30.28,ESE,102,1.0,3.0,71,0.00,,,0.00,WeatherCatV1.15B25,2013-10-10 17:11:00,
2013-10-10 13:16:00,60.0,50.2,30.28,WNW,292,0.0,2.0,70,0.00,,,0.00,WeatherCatV1.15B25,2013-10-10 17:16:00,
2013-10-10 13:21:00,60.0,50.2,30.28,WNW,295,0.0,0.0,70,0.00,,,0.00,WeatherCatV1.15B25,2013-10-10 17:21:00,
2013-10-10 13:26:00,60.1,50.3,30.28,East,96,0.0,2.0,70,0.00,,,0.00,WeatherCatV1.15B25,2013-10-10 17:26:00,
2013-10-10 13:31:00,60.1,49.9,30.28,East,95,0.0,0.0,69,0.00,,,0.00,WeatherCatV1.15B25,2013-10-10 17:31:00,
2013-10-10 13:36:00,60.2,50.4,30.28,ENE,74,0.0,1.0,70,0.00,,,0.00,WeatherCatV1.15B25,2013-10-10 17:36:00,
2013-10-10 13:41:00,60.1,50.3,30.28,West,261,0.0,1.0,70,0.00,,,0.00,WeatherCatV1.15B25,2013-10-10 17:41:00,
2013-10-10 13:46:00,60.1,50.3,30.28,WSW,257,0.0,1.0,70,0.00,,,0.00,WeatherCatV1.15B25,2013-10-10 17:46:00,
2013-10-10 13:51:00,60.1,50.3,30.27,WNW,290,0.0,0.0,70,0.00,,,0.00,WeatherCatV1.15B25,2013-10-10 17:51:00,
2013-10-10 13:56:00,60.2,50.4,30.27,WNW,290,0.0,1.0,70,0.00,,,0.00,WeatherCatV1.15B25,2013-10-10 17:56:00,
2013-10-10 14:01:00,60.3,50.9,30.27,WNW,290,0.0,0.0,71,0.00,,,0.00,WeatherCatV1.15B25,2013-10-10 18:01:00,
2013-10-10 14:06:00,60.3,50.9,30.27,WNW,302,2.0,2.0,71,0.00,,,0.00,WeatherCatV1.15B25,2013-10-10 18:06:00,
2013-10-10 14:11:00,60.1,50.3,30.27,NNW,331,0.0,1.0,70,0.00,,,0.00,WeatherCatV1.15B25,2013-10-10 18:11:00,
2013-10-10 14:16:00,60.2,50.8,30.27,NNW,331,0.0,0.0,71,0.00,,,0.00,WeatherCatV1.15B25,2013-10-10 18:16:00,
2013-10-10 14:21:00,60.1,51.0,30.27,ESE,122,0.0,1.0,72,0.00,,,0.00,WeatherCatV1.15B25,2013-10-10 18:21:00,
2013-10-10 14:26:00,60.1,50.7,30.27,ESE,113,0.0,2.0,71,0.00,,,0.00,WeatherCatV1.15B25,2013-10-10 18:26:00,
2013-10-10 14:31:00,60.0,50.9,30.27,East,83,0.0,2.0,72,0.00,,,0.00,WeatherCatV1.15B25,2013-10-10 18:31:00,
2013-10-10 14:36:00,60.0,50.9,30.27,NE,55,0.0,1.0,72,0.00,,,0.00,WeatherCatV1.15B25,2013-10-10 18:36:00,
2013-10-10 14:41:00,60.3,52.0,30.27,West,275,0.0,1.0,74,0.00,,,0.00,WeatherCatV1.15B25,2013-10-10 18:41:00,
2013-10-10 14:46:00,60.3,51.6,30.27,WNW,283,0.0,1.0,73,0.00,,,0.00,WeatherCatV1.15B25,2013-10-10 18:46:00,
2013-10-10 14:51:00,60.3,51.6,30.26,NW,309,0.0,0.0,73,0.00,,,0.00,WeatherCatV1.15B25,2013-10-10 18:51:00,
2013-10-10 14:56:00,60.4,52.1,30.26,NW,306,0.0,0.0,74,0.00,,,0.00,WeatherCatV1.15B25,2013-10-10 18:56:00,
2013-10-10 15:01:00,60.4,51.3,30.26,NW,308,0.0,0.0,72,0.00,,,0.00,WeatherCatV1.15B25,2013-10-10 19:01:00,
2013-10-10 15:07:00,60.5,51.8,30.26,NW,307,0.0,0.0,73,0.00,,,0.00,WeatherCatV1.15B25,2013-10-10 19:07:00,
2013-10-10 15:12:00,60.7,52.0,30.25,NW,308,0.0,0.0,73,0.00,,,0.00,WeatherCatV1.15B25,2013-10-10 19:12:00,
2013-10-10 15:17:00,60.7,51.6,30.25,ENE,73,0.0,1.0,72,0.00,,,0.00,WeatherCatV1.15B25,2013-10-10 19:17:00,
2013-10-10 15:22:00,60.7,52.0,30.25,WSW,257,0.0,0.0,73,0.00,,,0.00,WeatherCatV1.15B25,2013-10-10 19:22:00,
2013-10-10 15:27:00,60.7,52.0,30.25,West,263,0.0,1.0,73,0.00,,,0.00,WeatherCatV1.15B25,2013-10-10 19:27:00,
2013-10-10 15:32:00,60.6,51.9,30.25,East,98,0.0,0.0,73,0.00,,,0.00,WeatherCatV1.15B25,2013-10-10 19:32:00,
2013-10-10 15:37:00,60.6,51.5,30.25,SW,236,0.0,1.0,72,0.00,,,0.00,WeatherCatV1.15B25,2013-10-10 19:37:00,
2013-10-10 15:42:00,60.6,51.5,30.25,WSW,256,0.0,1.0,72,0.00,,,0.00,WeatherCatV1.15B25,2013-10-10 19:42:00,
2013-10-10 15:47:00,60.5,51.8,30.24,West,259,0.0,0.0,73,0.00,,,0.00,WeatherCatV1.15B25,2013-10-10 19:47:00,
2013-10-10 15:52:00,60.3,51.6,30.25,ESE,122,0.0,1.0,73,0.00,,,0.00,WeatherCatV1.15B25,2013-10-10 19:52:00,
2013-10-10 15:57:00,60.3,52.0,30.24,ESE,122,0.0,0.0,74,0.00,,,0.00,WeatherCatV1.15B25,2013-10-10 19:57:00,
2013-10-10 16:02:00,60.3,51.6,30.24,ESE,122,0.0,0.0,73,0.00,,,0.00,WeatherCatV1.15B25,2013-10-10 20:02:00,
2013-10-10 16:07:00,60.1,51.8,30.24,ESE,122,0.0,0.0,74,0.00,,,0.00,WeatherCatV1.15B25,2013-10-10 20:07:00,
2013-10-10 16:12:00,60.0,51.3,30.24,WNW,295,0.0,1.0,73,0.00,,,0.00,WeatherCatV1.15B25,2013-10-10 20:12:00,
2013-10-10 16:17:00,60.0,51.3,30.24,WNW,295,0.0,0.0,73,0.00,,,0.00,WeatherCatV1.15B25,2013-10-10 20:17:00,
2013-10-10 16:22:00,59.8,51.5,30.24,WNW,295,0.0,0.0,74,0.00,,,0.00,WeatherCatV1.15B25,2013-10-10 20:22:00,
2013-10-10 16:27:00,59.7,51.4,30.24,WNW,295,0.0,0.0,74,0.00,,,0.00,WeatherCatV1.15B25,2013-10-10 20:27:00,
2013-10-10 16:31:00,59.6,51.3,30.24,WNW,290,1.0,1.0,74,0.00,,,0.00,WeatherCatV1.15B25,2013-10-10 20:31:00,
2013-10-10 16:36:00,59.5,51.6,30.23,WNW,290,0.0,0.0,75,0.00,,,0.00,WeatherCatV1.15B25,2013-10-10 20:36:00,
2013-10-10 16:41:00,59.3,51.0,30.24,WNW,289,0.0,1.0,74,0.00,,,0.00,WeatherCatV1.15B25,2013-10-10 20:41:00,
2013-10-10 16:46:00,59.3,51.4,30.24,WNW,289,0.0,0.0,75,0.00,,,0.00,WeatherCatV1.15B25,2013-10-10 20:46:00,
2013-10-10 16:51:00,59.2,51.3,30.24,WNW,289,0.0,0.0,75,0.00,,,0.00,WeatherCatV1.15B25,2013-10-10 20:51:00,
2013-10-10 16:56:00,59.2,51.3,30.24,WNW,289,0.0,0.0,75,0.00,,,0.00,WeatherCatV1.15B25,2013-10-10 20:56:00,
2013-10-10 17:01:00,59.2,51.3,30.24,WNW,289,0.0,0.0,75,0.00,,,0.00,WeatherCatV1.15B25,2013-10-10 21:01:00,
2013-10-10 17:06:00,59.2,51.6,30.24,WNW,289,0.0,0.0,76,0.00,,,0.00,WeatherCatV1.15B25,2013-10-10 21:06:00,
2013-10-10 17:11:00,59.1,51.2,30.24,WNW,289,0.0,0.0,75,0.00,,,0.00,WeatherCatV1.15B25,2013-10-10 21:11:00,
2013-10-10 17:16:00,59.1,51.5,30.24,WNW,288,0.0,1.0,76,0.00,,,0.00,WeatherCatV1.15B25,2013-10-10 21:16:00,
2013-10-10 17:21:00,58.9,51.7,30.24,WNW,289,0.0,0.0,77,0.00,,,0.00,WeatherCatV1.15B25,2013-10-10 21:21:00,
2013-10-10 17:26:00,58.7,51.5,30.24,ESE,115,0.0,0.0,77,0.00,,,0.00,WeatherCatV1.15B25,2013-10-10 21:26:00,
2013-10-10 17:31:00,58.6,51.8,30.24,ESE,115,0.0,0.0,78,0.00,,,0.00,WeatherCatV1.15B25,2013-10-10 21:31:00,
2013-10-10 17:36:00,58.4,51.6,30.24,ESE,115,0.0,0.0,78,0.00,,,0.00,WeatherCatV1.15B25,2013-10-10 21:36:00,
2013-10-10 17:41:00,58.2,51.7,30.24,ESE,115,0.0,0.0,79,0.00,,,0.00,WeatherCatV1.15B25,2013-10-10 21:41:00,
2013-10-10 17:46:00,58.0,51.9,30.24,ESE,115,0.0,1.0,80,0.00,,,0.00,WeatherCatV1.15B25,2013-10-10 21:46:00,
2013-10-10 17:51:00,57.8,51.7,30.24,East,101,0.0,0.0,80,0.00,,,0.00,WeatherCatV1.15B25,2013-10-10 21:51:00,
2013-10-10 17:56:00,57.5,51.7,30.24,East,101,0.0,0.0,81,0.00,,,0.00,WeatherCatV1.15B25,2013-10-10 21:56:00,
2013-10-10 18:01:00,57.3,51.8,30.24,SE,131,0.0,0.0,82,0.00,,,0.00,WeatherCatV1.15B25,2013-10-10 22:01:00,
2013-10-10 18:06:00,57.1,51.7,30.23,ESE,112,0.0,1.0,82,0.00,,,0.00,WeatherCatV1.15B25,2013-10-10 22:06:00,
2013-10-10 18:11:00,56.9,51.8,30.23,SE,132,0.0,0.0,83,0.00,,,0.00,WeatherCatV1.15B25,2013-10-10 22:11:00,
2013-10-10 18:16:00,56.7,51.6,30.23,SE,133,0.0,1.0,83,0.00,,,0.00,WeatherCatV1.15B25,2013-10-10 22:16:00,
2013-10-10 18:21:00,56.5,51.7,30.23,SE,132,0.0,0.0,84,0.00,,,0.00,WeatherCatV1.15B25,2013-10-10 22:21:00,
2013-10-10 18:26:00,56.2,51.4,30.23,SE,133,0.0,0.0,84,0.00,,,0.00,WeatherCatV1.15B25,2013-10-10 22:26:00,
2013-10-10 18:31:00,55.9,51.5,30.23,SE,132,0.0,0.0,85,0.00,,,0.00,WeatherCatV1.15B25,2013-10-10 22:31:00,
2013-10-10 18:36:00,55.7,51.6,30.23,SE,132,0.0,0.0,86,0.00,,,0.00,WeatherCatV1.15B25,2013-10-10 22:36:00,
2013-10-10 18:41:00,55.4,51.3,30.23,SE,129,0.0,1.0,86,0.00,,,0.00,WeatherCatV1.15B25,2013-10-10 22:41:00,
2013-10-10 18:46:00,55.3,51.5,30.23,SE,129,0.0,0.0,87,0.00,,,0.00,WeatherCatV1.15B25,2013-10-10 22:46:00,
2013-10-10 18:51:00,55.0,51.2,30.23,SE,127,0.0,0.0,87,0.00,,,0.00,WeatherCatV1.15B25,2013-10-10 22:51:00,
2013-10-10 18:56:00,54.9,51.4,30.23,SE,127,0.0,0.0,88,0.00,,,0.00,WeatherCatV1.15B25,2013-10-10 22:56:00,
2013-10-10 19:01:00,54.7,51.2,30.23,SE,127,0.0,0.0,88,0.00,,,0.00,WeatherCatV1.15B25,2013-10-10 23:01:00,
2013-10-10 19:06:00,54.5,51.0,30.23,SE,127,0.0,1.0,88,0.00,,,0.00,WeatherCatV1.15B25,2013-10-10 23:06:00,
2013-10-10 19:11:00,54.4,51.2,30.23,East,95,0.0,0.0,89,0.00,,,0.00,WeatherCatV1.15B25,2013-10-10 23:11:00,
2013-10-10 19:16:00,54.3,51.1,30.23,ESE,112,0.0,1.0,89,0.00,,,0.00,WeatherCatV1.15B25,2013-10-10 23:16:00,
2013-10-10 19:21:00,54.3,51.1,30.23,SE,129,0.0,1.0,89,0.00,,,0.00,WeatherCatV1.15B25,2013-10-10 23:21:00,
2013-10-10 19:26:00,54.2,51.0,30.23,ESE,115,0.0,0.0,89,0.00,,,0.00,WeatherCatV1.15B25,2013-10-10 23:26:00,
2013-10-10 19:31:00,54.2,51.0,30.23,ESE,115,0.0,1.0,89,0.00,,,0.00,WeatherCatV1.15B25,2013-10-10 23:31:00,
2013-10-10 19:36:00,54.1,50.9,30.23,ESE,115,0.0,0.0,89,0.00,,,0.00,WeatherCatV1.15B25,2013-10-10 23:36:00,
2013-10-10 19:41:00,54.0,50.8,30.23,ESE,115,0.0,0.0,89,0.00,,,0.00,WeatherCatV1.15B25,2013-10-10 23:41:00,
2013-10-10 19:46:00,53.9,51.0,30.23,ESE,115,0.0,0.0,90,0.00,,,0.00,WeatherCatV1.15B25,2013-10-10 23:46:00,
2013-10-10 19:51:00,53.9,51.0,30.23,ESE,115,0.0,0.0,90,0.00,,,0.00,WeatherCatV1.15B25,2013-10-10 23:51:00,
2013-10-10 19:56:00,53.8,50.9,30.23,ESE,111,0.0,0.0,90,0.00,,,0.00,WeatherCatV1.15B25,2013-10-10 23:56:00,
2013-10-10 20:01:00,53.7,50.8,30.23,ESE,111,0.0,0.0,90,0.00,,,0.00,WeatherCatV1.15B25,2013-10-11 00:01:00,
2013-10-10 20:06:00,53.7,50.8,30.23,ESE,111,0.0,0.0,90,0.00,,,0.00,WeatherCatV1.15B25,2013-10-11 00:06:00,
2013-10-10 20:11:00,53.6,50.7,30.24,ESE,111,0.0,0.0,90,0.00,,,0.00,WeatherCatV1.15B25,2013-10-11 00:11:00,
2013-10-10 20:16:00,53.6,50.7,30.23,ESE,111,0.0,0.0,90,0.00,,,0.00,WeatherCatV1.15B25,2013-10-11 00:16:00,
2013-10-10 20:21:00,53.5,50.9,30.23,ESE,120,0.0,1.0,91,0.00,,,0.00,WeatherCatV1.15B25,2013-10-11 00:21:00,
2013-10-10 20:26:00,53.5,50.9,30.23,ESE,120,0.0,1.0,91,0.00,,,0.00,WeatherCatV1.15B25,2013-10-11 00:26:00,
2013-10-10 20:31:00,53.4,50.8,30.23,ESE,120,0.0,0.0,91,0.00,,,0.00,WeatherCatV1.15B25,2013-10-11 00:31:00,
2013-10-10 20:36:00,53.4,50.8,30.23,ESE,119,0.0,0.0,91,0.00,,,0.00,WeatherCatV1.15B25,2013-10-11 00:36:00,
2013-10-10 20:41:00,53.2,50.6,30.23,ESE,120,0.0,0.0,91,0.00,,,0.00,WeatherCatV1.15B25,2013-10-11 00:41:00,
2013-10-10 20:46:00,53.2,50.6,30.23,ESE,120,0.0,0.0,91,0.00,,,0.00,WeatherCatV1.15B25,2013-10-11 00:46:00,
2013-10-10 20:51:00,53.1,50.8,30.23,ESE,120,0.0,0.0,92,0.00,,,0.00,WeatherCatV1.15B25,2013-10-11 00:51:00,
2013-10-10 20:56:00,53.0,50.7,30.23,ESE,120,0.0,0.0,92,0.00,,,0.00,WeatherCatV1.15B25,2013-10-11 00:56:00,
2013-10-10 21:01:00,52.9,50.6,30.23,ESE,120,0.0,0.0,92,0.00,,,0.00,WeatherCatV1.15B25,2013-10-11 01:01:00,
2013-10-10 21:06:00,52.8,50.5,30.23,ESE,120,0.0,0.0,92,0.00,,,0.00,WeatherCatV1.15B25,2013-10-11 01:06:00,
2013-10-10 21:11:00,52.8,50.5,30.23,ESE,120,0.0,0.0,92,0.00,,,0.00,WeatherCatV1.15B25,2013-10-11 01:11:00,
2013-10-10 21:16:00,52.7,50.4,30.23,ESE,120,0.0,0.0,92,0.00,,,0.00,WeatherCatV1.15B25,2013-10-11 01:16:00,
2013-10-10 21:21:00,52.6,50.3,30.23,ESE,120,0.0,0.0,92,0.00,,,0.00,WeatherCatV1.15B25,2013-10-11 01:21:00,
2013-10-10 21:26:00,52.6,50.6,30.23,ESE,120,0.0,0.0,93,0.00,,,0.00,WeatherCatV1.15B25,2013-10-11 01:26:00,
2013-10-10 21:31:00,52.5,50.5,30.23,ESE,120,0.0,0.0,93,0.00,,,0.00,WeatherCatV1.15B25,2013-10-11 01:31:00,
2013-10-10 21:36:00,52.4,50.4,30.22,ESE,120,0.0,0.0,93,0.00,,,0.00,WeatherCatV1.15B25,2013-10-11 01:36:00,
2013-10-10 21:41:00,52.4,50.4,30.22,ESE,120,0.0,0.0,93,0.00,,,0.00,WeatherCatV1.15B25,2013-10-11 01:41:00,
2013-10-10 21:46:00,52.2,50.2,30.22,ESE,119,0.0,0.0,93,0.00,,,0.00,WeatherCatV1.15B25,2013-10-11 01:46:00,
2013-10-10 21:51:00,52.1,50.1,30.22,ESE,120,0.0,0.0,93,0.00,,,0.00,WeatherCatV1.15B25,2013-10-11 01:51:00,
2013-10-10 21:56:00,52.0,50.0,30.22,ESE,120,0.0,0.0,93,0.00,,,0.00,WeatherCatV1.15B25,2013-10-11 01:56:00,
2013-10-10 22:01:00,51.9,49.9,30.22,ESE,120,0.0,0.0,93,0.00,,,0.00,WeatherCatV1.15B25,2013-10-11 02:01:00,
2013-10-10 22:06:00,51.8,49.8,30.22,ESE,119,0.0,0.0,93,0.00,,,0.00,WeatherCatV1.15B25,2013-10-11 02:06:00,
2013-10-10 22:11:00,51.7,49.7,30.22,ESE,120,0.0,0.0,93,0.00,,,0.00,WeatherCatV1.15B25,2013-10-11 02:11:00,
2013-10-10 22:16:00,51.5,49.5,30.22,ESE,120,0.0,0.0,93,0.00,,,0.00,WeatherCatV1.15B25,2013-10-11 02:16:00,
2013-10-10 22:21:00,51.5,49.8,30.22,ESE,120,0.0,0.0,94,0.00,,,0.00,WeatherCatV1.15B25,2013-10-11 02:21:00,
2013-10-10 22:26:00,51.3,49.6,30.22,ESE,120,0.0,0.0,94,0.00,,,0.00,WeatherCatV1.15B25,2013-10-11 02:26:00,
2013-10-10 22:31:00,51.1,49.4,30.22,ESE,119,0.0,0.0,94,0.00,,,0.00,WeatherCatV1.15B25,2013-10-11 02:31:00,
2013-10-10 22:36:00,51.1,49.4,30.22,ESE,120,0.0,0.0,94,0.00,,,0.00,WeatherCatV1.15B25,2013-10-11 02:36:00,
2013-10-10 22:41:00,51.0,49.3,30.22,ESE,120,0.0,0.0,94,0.00,,,0.00,WeatherCatV1.15B25,2013-10-11 02:41:00,
2013-10-10 22:46:00,50.9,49.2,30.22,ESE,120,0.0,0.0,94,0.00,,,0.00,WeatherCatV1.15B25,2013-10-11 02:46:00,
2013-10-10 22:51:00,51.0,49.6,30.22,ESE,120,0.0,0.0,95,0.00,,,0.00,WeatherCatV1.15B25,2013-10-11 02:51:00,
2013-10-10 22:56:00,51.2,49.8,30.22,ESE,120,0.0,0.0,95,0.00,,,0.00,WeatherCatV1.15B25,2013-10-11 02:56:00,
2013-10-10 23:01:00,51.2,49.8,30.22,ESE,120,0.0,0.0,95,0.00,,,0.00,WeatherCatV1.15B25,2013-10-11 03:01:00,
2013-10-10 23:06:00,51.2,49.8,30.21,ESE,120,0.0,0.0,95,0.00,,,0.00,WeatherCatV1.15B25,2013-10-11 03:06:00,
2013-10-10 23:11:00,51.0,49.6,30.21,ESE,120,0.0,0.0,95,0.00,,,0.00,WeatherCatV1.15B25,2013-10-11 03:11:00,
2013-10-10 23:16:00,51.0,49.6,30.21,ESE,120,0.0,0.0,95,0.00,,,0.00,WeatherCatV1.15B25,2013-10-11 03:16:00,
2013-10-10 23:21:00,51.0,49.6,30.21,ESE,120,0.0,0.0,95,0.00,,,0.00,WeatherCatV1.15B25,2013-10-11 03:21:00,
2013-10-10 23:26:00,51.0,49.6,30.21,ESE,120,0.0,0.0,95,0.00,,,0.00,WeatherCatV1.15B25,2013-10-11 03:26:00,
2013-10-10 23:31:00,51.0,49.6,30.21,ESE,120,0.0,0.0,95,0.00,,,0.00,WeatherCatV1.15B25,2013-10-11 03:31:00,
2013-10-10 23:36:00,51.1,49.7,30.21,ESE,120,0.0,0.0,95,0.00,,,0.00,WeatherCatV1.15B25,2013-10-11 03:36:00,
2013-10-10 23:41:00,51.2,49.8,30.21,ESE,119,0.0,0.0,95,0.00,,,0.00,WeatherCatV1.15B25,2013-10-11 03:41:00,
2013-10-10 23:46:00,51.2,49.8,30.20,ESE,119,0.0,0.0,95,0.00,,,0.00,WeatherCatV1.15B25,2013-10-11 03:46:00,
2013-10-10 23:51:00,51.1,49.7,30.21,ESE,120,0.0,0.0,95,0.00,,,0.00,WeatherCatV1.15B25,2013-10-11 03:51:00,
2013-10-10 23:56:00,51.2,49.8,30.21,ESE,120,0.0,0.0,95,0.00,,,0.00,WeatherCatV1.15B25,2013-10-11 03:56:00,